DAL1879 TJSJ-KATL
Flight info
| Callsign | DAL1879 |
|---|---|
| Flight time | N/A |
| Altitude | 34000 |
| Route | ACONY3 PALDE DCT DONQU Y185 MANLE Q89 SHRKS DCT LAIRI DCT LARZZ JJEDI4 |
| Aircraft | B752/M-SDE2E3FGHIJ3J4J7RWXY/LB1 |
Departure
| Time | 2026-04-28 15:12 |
|---|---|
| Airport | Luis Munoz Marin International Airport (TJSJ) |
Arrival
| Time | N/A |
|---|---|
| Airport | Hartsfield Jackson Atlanta International Airport (KATL) |
| Time | Latitude | Longitude | Altitude | Speed | Heading |
|---|---|---|---|---|---|
| 2026-04-28 14:40 | 18.43618 | -66.00124 | 23 ft | 0 kts | 344° |
| 2026-04-28 15:00 | 18.43614 | -66.00124 | 23 ft | 2 kts | 344° |
| 2026-04-28 15:01 | 18.43600 | -66.00119 | 22 ft | 2 kts | 344° |
| 2026-04-28 15:01 | 18.43591 | -66.00117 | 22 ft | 2 kts | 344° |
| 2026-04-28 15:01 | 18.43577 | -66.00109 | 22 ft | 2 kts | 319° |
| 2026-04-28 15:01 | 18.43567 | -66.00098 | 21 ft | 2 kts | 301° |
| 2026-04-28 15:02 | 18.43562 | -66.00083 | 21 ft | 2 kts | 281° |
| 2026-04-28 15:02 | 18.43561 | -66.00073 | 21 ft | 0 kts | 268° |
| 2026-04-28 15:02 | 18.43561 | -66.00066 | 20 ft | 0 kts | 266° |
| 2026-04-28 15:04 | 18.43559 | -66.00100 | 21 ft | 7 kts | 265° |
| 2026-04-28 15:04 | 18.43554 | -66.00158 | 23 ft | 7 kts | 265° |
| 2026-04-28 15:05 | 18.43531 | -66.00216 | 22 ft | 9 kts | 213° |
| 2026-04-28 15:05 | 18.43474 | -66.00256 | 21 ft | 10 kts | 244° |
| 2026-04-28 15:05 | 18.43465 | -66.00335 | 21 ft | 11 kts | 269° |
| 2026-04-28 15:05 | 18.43465 | -66.00427 | 20 ft | 13 kts | 270° |
| 2026-04-28 15:06 | 18.43466 | -66.00526 | 19 ft | 13 kts | 270° |
| 2026-04-28 15:06 | 18.43466 | -66.00620 | 19 ft | 12 kts | 270° |
| 2026-04-28 15:06 | 18.43466 | -66.00711 | 18 ft | 13 kts | 270° |
| 2026-04-28 15:06 | 18.43466 | -66.00811 | 16 ft | 13 kts | 270° |
| 2026-04-28 15:07 | 18.43466 | -66.00911 | 16 ft | 13 kts | 270° |
| 2026-04-28 15:07 | 18.43467 | -66.01012 | 16 ft | 12 kts | 270° |
| 2026-04-28 15:07 | 18.43466 | -66.01099 | 18 ft | 12 kts | 270° |
| 2026-04-28 15:07 | 18.43475 | -66.01188 | 19 ft | 11 kts | 299° |
| 2026-04-28 15:08 | 18.43536 | -66.01231 | 19 ft | 9 kts | 313° |
| 2026-04-28 15:08 | 18.43550 | -66.01300 | 19 ft | 11 kts | 271° |
| 2026-04-28 15:08 | 18.43551 | -66.01385 | 19 ft | 10 kts | 274° |
| 2026-04-28 15:08 | 18.43591 | -66.01432 | 19 ft | 8 kts | 346° |
| 2026-04-28 15:09 | 18.43662 | -66.01436 | 19 ft | 11 kts | 0° |
| 2026-04-28 15:09 | 18.43734 | -66.01445 | 19 ft | 9 kts | 327° |
| 2026-04-28 15:09 | 18.43753 | -66.01488 | 19 ft | 0 kts | 277° |
| 2026-04-28 15:09 | 18.43754 | -66.01493 | 19 ft | 2 kts | 278° |
| 2026-04-28 15:10 | 18.43768 | -66.01531 | 19 ft | 4 kts | 309° |
| 2026-04-28 15:10 | 18.43811 | -66.01563 | 19 ft | 10 kts | 346° |
| 2026-04-28 15:10 | 18.43861 | -66.01529 | 19 ft | 8 kts | 70° |
| 2026-04-28 15:10 | 18.43885 | -66.01466 | 19 ft | 17 kts | 67° |
| 2026-04-28 15:11 | 18.44008 | -66.01161 | 19 ft | 73 kts | 66° |
| 2026-04-28 15:11 | 18.44283 | -66.00486 | 22 ft | 126 kts | 67° |
| 2026-04-28 15:11 | 18.44691 | -65.99469 | 102 ft | 166 kts | 66° |
| 2026-04-28 15:11 | 18.45135 | -65.98328 | 589 ft | 174 kts | 68° |
| 2026-04-28 15:12 | 18.45780 | -65.97211 | 1153 ft | 185 kts | 38° |
| 2026-04-28 15:12 | 18.46971 | -65.96774 | 1683 ft | 188 kts | 358° |
| 2026-04-28 15:12 | 18.48254 | -65.97183 | 2093 ft | 196 kts | 337° |
| 2026-04-28 15:12 | 18.49371 | -65.97951 | 2587 ft | 197 kts | 311° |
| 2026-04-28 15:13 | 18.50222 | -65.99113 | 3048 ft | 199 kts | 310° |
| 2026-04-28 15:13 | 18.51101 | -66.00227 | 3438 ft | 207 kts | 312° |
| 2026-04-28 15:13 | 18.52106 | -66.01436 | 3630 ft | 227 kts | 313° |
| 2026-04-28 15:13 | 18.53200 | -66.02718 | 3886 ft | 246 kts | 313° |
| 2026-04-28 15:14 | 18.54400 | -66.04105 | 4245 ft | 263 kts | 313° |
| 2026-04-28 15:14 | 18.55664 | -66.05551 | 4797 ft | 271 kts | 313° |
| 2026-04-28 15:14 | 18.56961 | -66.07030 | 5293 ft | 281 kts | 313° |
| 2026-04-28 15:14 | 18.58299 | -66.08553 | 5876 ft | 281 kts | 313° |
| 2026-04-28 15:15 | 18.59624 | -66.10059 | 6475 ft | 285 kts | 313° |
| 2026-04-28 15:15 | 18.60529 | -66.11085 | 6876 ft | 285 kts | 313° |
| 2026-04-28 15:15 | 18.62339 | -66.13139 | 7678 ft | 288 kts | 313° |
| 2026-04-28 15:15 | 18.63690 | -66.14672 | 8334 ft | 286 kts | 313° |
| 2026-04-28 15:16 | 18.65040 | -66.16205 | 9018 ft | 288 kts | 312° |
| 2026-04-28 15:16 | 18.66406 | -66.17756 | 9686 ft | 290 kts | 312° |
| 2026-04-28 15:16 | 18.67786 | -66.19322 | 10373 ft | 292 kts | 312° |
| 2026-04-28 15:16 | 18.69196 | -66.20925 | 10903 ft | 300 kts | 312° |
| 2026-04-28 15:17 | 18.70657 | -66.22586 | 11085 ft | 319 kts | 312° |
| 2026-04-28 15:17 | 18.72238 | -66.24382 | 11299 ft | 338 kts | 311° |
| 2026-04-28 15:17 | 18.73890 | -66.26261 | 11514 ft | 357 kts | 312° |
| 2026-04-28 15:17 | 18.75692 | -66.28308 | 11943 ft | 368 kts | 311° |
| 2026-04-28 15:18 | 18.77493 | -66.30356 | 12617 ft | 370 kts | 311° |
| 2026-04-28 15:18 | 18.79335 | -66.32451 | 13257 ft | 372 kts | 311° |
| 2026-04-28 15:18 | 18.81179 | -66.34548 | 13857 ft | 375 kts | 311° |
| 2026-04-28 15:18 | 18.83104 | -66.36740 | 14458 ft | 378 kts | 311° |
| 2026-04-28 15:19 | 18.84920 | -66.38809 | 15018 ft | 380 kts | 311° |
| 2026-04-28 15:19 | 18.86735 | -66.40878 | 15550 ft | 382 kts | 311° |
| 2026-04-28 15:19 | 18.88663 | -66.43075 | 16040 ft | 385 kts | 311° |
| 2026-04-28 15:19 | 18.90540 | -66.45215 | 16564 ft | 387 kts | 310° |
| 2026-04-28 15:20 | 18.92455 | -66.47398 | 17041 ft | 389 kts | 311° |
| 2026-04-28 15:20 | 18.94417 | -66.49448 | 17492 ft | 392 kts | 314° |
| 2026-04-28 15:20 | 18.96482 | -66.51527 | 17904 ft | 396 kts | 314° |
| 2026-04-28 15:20 | 18.98471 | -66.53539 | 18348 ft | 398 kts | 313° |
| 2026-04-28 15:21 | 19.00509 | -66.55601 | 18718 ft | 401 kts | 313° |
| 2026-04-28 15:21 | 19.02578 | -66.57699 | 19158 ft | 403 kts | 313° |
| 2026-04-28 15:21 | 19.04654 | -66.59804 | 19554 ft | 406 kts | 313° |
| 2026-04-28 15:21 | 19.06740 | -66.61921 | 19954 ft | 408 kts | 313° |
| 2026-04-28 15:22 | 19.08700 | -66.64157 | 20331 ft | 407 kts | 306° |
| 2026-04-28 15:22 | 19.10512 | -66.66492 | 20724 ft | 409 kts | 306° |
| 2026-04-28 15:22 | 19.12342 | -66.68835 | 21072 ft | 411 kts | 306° |
| 2026-04-28 15:22 | 19.14190 | -66.71205 | 21464 ft | 412 kts | 305° |
| 2026-04-28 15:23 | 19.16014 | -66.73547 | 21779 ft | 415 kts | 305° |
| 2026-04-28 15:23 | 19.17876 | -66.75938 | 22121 ft | 417 kts | 305° |
| 2026-04-28 15:23 | 19.19699 | -66.78280 | 22455 ft | 419 kts | 305° |
| 2026-04-28 15:23 | 19.21583 | -66.80704 | 22739 ft | 421 kts | 305° |
| 2026-04-28 15:24 | 19.23441 | -66.83094 | 23091 ft | 423 kts | 305° |
| 2026-04-28 15:24 | 19.25308 | -66.85497 | 23465 ft | 423 kts | 305° |
| 2026-04-28 15:24 | 19.27208 | -66.87942 | 23773 ft | 425 kts | 304° |
| 2026-04-28 15:24 | 19.29062 | -66.90330 | 24144 ft | 426 kts | 304° |
| 2026-04-28 15:25 | 19.30975 | -66.92795 | 24480 ft | 427 kts | 304° |
| 2026-04-28 15:25 | 19.32841 | -66.95200 | 24802 ft | 429 kts | 304° |
| 2026-04-28 15:25 | 19.34746 | -66.97656 | 25136 ft | 430 kts | 304° |
| 2026-04-28 15:25 | 19.36707 | -67.00039 | 25471 ft | 434 kts | 310° |
| 2026-04-28 15:26 | 19.39075 | -67.02148 | 25744 ft | 444 kts | 320° |
| 2026-04-28 15:26 | 19.41626 | -67.03973 | 26024 ft | 446 kts | 319° |
| 2026-04-28 15:26 | 19.44152 | -67.05894 | 26288 ft | 447 kts | 317° |
| 2026-04-28 15:26 | 19.46656 | -67.07866 | 26644 ft | 446 kts | 317° |
| 2026-04-28 15:27 | 19.49152 | -67.09873 | 26852 ft | 449 kts | 316° |
| 2026-04-28 15:27 | 19.51631 | -67.11896 | 27276 ft | 447 kts | 316° |
| 2026-04-28 15:27 | 19.54083 | -67.13915 | 27415 ft | 451 kts | 316° |
| 2026-04-28 15:27 | 19.56571 | -67.15974 | 27811 ft | 449 kts | 315° |